sensor_id;sensor_type;location;lat;lon;timestamp;pressure;altitude;pressure_sealevel;temperature;humidity
48244;BME280;34053;51.088;6.572;2023-05-01T00:00:31;101138.16;;;15.03;49.52
48244;BME280;34053;51.088;6.572;2023-05-01T00:03:22;101140.81;;;15.03;49.92
48244;BME280;34053;51.088;6.572;2023-05-01T00:06:13;101136.44;;;15.02;50.38
48244;BME280;34053;51.088;6.572;2023-05-01T00:09:03;101141.16;;;14.94;49.49
48244;BME280;34053;51.088;6.572;2023-05-01T00:11:55;101136.69;;;14.72;51.10
48244;BME280;34053;51.088;6.572;2023-05-01T00:14:45;101135.78;;;14.73;50.92
48244;BME280;34053;51.088;6.572;2023-05-01T00:17:36;101131.06;;;14.82;50.48
48244;BME280;34053;51.088;6.572;2023-05-01T00:20:28;101127.63;;;14.79;51.07
48244;BME280;34053;51.088;6.572;2023-05-01T00:23:19;101125.06;;;14.78;50.58
48244;BME280;34053;51.088;6.572;2023-05-01T00:26:09;101126.97;;;14.00;53.20
48244;BME280;34053;51.088;6.572;2023-05-01T00:29:00;101119.41;;;13.89;53.30
48244;BME280;34053;51.088;6.572;2023-05-01T00:31:51;101117.47;;;14.20;51.80
48244;BME280;34053;51.088;6.572;2023-05-01T00:34:42;101108.94;;;14.37;51.75
48244;BME280;34053;51.088;6.572;2023-05-01T00:37:35;101106.91;;;14.43;51.18
48244;BME280;34053;51.088;6.572;2023-05-01T00:40:26;101104.25;;;14.45;51.68
48244;BME280;34053;51.088;6.572;2023-05-01T00:43:17;101103.94;;;14.53;50.91
48244;BME280;34053;51.088;6.572;2023-05-01T00:46:09;101103.03;;;14.54;51.09
48244;BME280;34053;51.088;6.572;2023-05-01T00:49:00;101095.91;;;14.56;51.27
48244;BME280;34053;51.088;6.572;2023-05-01T00:51:51;101089.91;;;14.52;50.97
48244;BME280;34053;51.088;6.572;2023-05-01T00:54:45;101094.25;;;14.53;50.94
48244;BME280;34053;51.088;6.572;2023-05-01T00:57:41;101082.94;;;14.50;51.17
48244;BME280;34053;51.088;6.572;2023-05-01T01:00:32;101083.81;;;14.50;50.99
48244;BME280;34053;51.088;6.572;2023-05-01T01:03:23;101075.78;;;14.29;52.13
48244;BME280;34053;51.088;6.572;2023-05-01T01:12:52;101065.97;;;14.33;51.21
48244;BME280;34053;51.088;6.572;2023-05-01T01:15:58;101061.53;;;14.33;51.07
48244;BME280;34053;51.088;6.572;2023-05-01T01:22:10;101051.44;;;14.21;51.30
48244;BME280;34053;51.088;6.572;2023-05-01T01:25:31;101045.75;;;14.08;51.66
48244;BME280;34053;51.088;6.572;2023-05-01T01:28:59;101051.78;;;14.12;51.52
48244;BME280;34053;51.088;6.572;2023-05-01T01:35:06;101046.19;;;13.96;52.45
48244;BME280;34053;51.088;6.572;2023-05-01T01:38:04;101034.56;;;14.01;52.06
48244;BME280;34053;51.088;6.572;2023-05-01T01:41:00;101040.34;;;13.88;52.42
48244;BME280;34053;51.088;6.572;2023-05-01T01:44:07;101029.75;;;13.64;53.45
48244;BME280;34053;51.088;6.572;2023-05-01T01:47:01;101029.28;;;14.01;52.37
48244;BME280;34053;51.088;6.572;2023-05-01T01:49:55;101024.25;;;13.95;52.64
48244;BME280;34053;51.088;6.572;2023-05-01T01:52:48;101021.94;;;14.10;51.67
48244;BME280;34053;51.088;6.572;2023-05-01T01:55:40;101023.84;;;14.06;51.76
48244;BME280;34053;51.088;6.572;2023-05-01T01:58:35;101012.19;;;13.63;53.32
48244;BME280;34053;51.088;6.572;2023-05-01T02:01:28;101015.88;;;13.59;53.20
48244;BME280;34053;51.088;6.572;2023-05-01T02:04:20;101008.03;;;13.81;52.09
48244;BME280;34053;51.088;6.572;2023-05-01T02:07:13;101011.56;;;13.29;53.68
48244;BME280;34053;51.088;6.572;2023-05-01T02:10:06;101007.56;;;13.44;52.81
48244;BME280;34053;51.088;6.572;2023-05-01T02:12:58;101002.34;;;13.43;53.37
48244;BME280;34053;51.088;6.572;2023-05-01T02:15:50;101003.78;;;13.51;52.66
48244;BME280;34053;51.088;6.572;2023-05-01T02:18:43;100999.00;;;13.37;53.00
48244;BME280;34053;51.088;6.572;2023-05-01T02:21:36;100996.06;;;13.47;52.99
48244;BME280;34053;51.088;6.572;2023-05-01T02:24:29;100989.66;;;13.54;52.65
48244;BME280;34053;51.088;6.572;2023-05-01T02:27:58;100987.22;;;13.73;51.95
48244;BME280;34053;51.088;6.572;2023-05-01T02:30:50;100984.44;;;13.78;51.92
48244;BME280;34053;51.088;6.572;2023-05-01T02:33:42;100974.97;;;13.72;52.55
48244;BME280;34053;51.088;6.572;2023-05-01T02:36:32;100981.78;;;13.78;52.18
48244;BME280;34053;51.088;6.572;2023-05-01T02:39:23;100977.31;;;13.80;52.36
48244;BME280;34053;51.088;6.572;2023-05-01T02:42:15;100967.72;;;13.77;52.27
48244;BME280;34053;51.088;6.572;2023-05-01T02:45:08;100958.88;;;13.80;52.02
48244;BME280;34053;51.088;6.572;2023-05-01T02:48:00;100962.28;;;13.82;52.10
48244;BME280;34053;51.088;6.572;2023-05-01T02:50:54;100965.56;;;13.89;51.88
48244;BME280;34053;51.088;6.572;2023-05-01T02:53:46;100955.25;;;13.82;51.78
48244;BME280;34053;51.088;6.572;2023-05-01T02:56:37;100949.84;;;13.85;52.02
48244;BME280;34053;51.088;6.572;2023-05-01T02:59:28;100934.91;;;13.86;51.74
48244;BME280;34053;51.088;6.572;2023-05-01T03:02:19;100938.56;;;13.82;52.22
48244;BME280;34053;51.088;6.572;2023-05-01T03:05:10;100932.28;;;13.84;52.03
48244;BME280;34053;51.088;6.572;2023-05-01T03:08:00;100934.16;;;13.82;51.87
48244;BME280;34053;51.088;6.572;2023-05-01T03:10:51;100931.34;;;13.87;51.84
48244;BME280;34053;51.088;6.572;2023-05-01T03:13:42;100924.34;;;13.86;51.53
48244;BME280;34053;51.088;6.572;2023-05-01T03:16:33;100919.00;;;13.88;51.58
48244;BME280;34053;51.088;6.572;2023-05-01T03:19:24;100918.19;;;13.85;51.69
48244;BME280;34053;51.088;6.572;2023-05-01T03:22:15;100915.44;;;13.89;51.76
48244;BME280;34053;51.088;6.572;2023-05-01T03:25:06;100914.66;;;13.87;51.80
48244;BME280;34053;51.088;6.572;2023-05-01T03:27:57;100916.38;;;13.88;51.73
48244;BME280;34053;51.088;6.572;2023-05-01T03:30:49;100898.97;;;13.83;51.75
48244;BME280;34053;51.088;6.572;2023-05-01T03:33:40;100902.38;;;13.85;52.03
48244;BME280;34053;51.088;6.572;2023-05-01T03:36:31;100896.31;;;13.83;51.82
48244;BME280;34053;51.088;6.572;2023-05-01T03:39:23;100900.78;;;13.81;52.06
48244;BME280;34053;51.088;6.572;2023-05-01T03:42:14;100902.72;;;13.76;52.25
48244;BME280;34053;51.088;6.572;2023-05-01T03:45:05;100893.88;;;13.77;52.01
48244;BME280;34053;51.088;6.572;2023-05-01T03:47:56;100899.16;;;13.77;51.50
48244;BME280;34053;51.088;6.572;2023-05-01T03:50:47;100890.31;;;13.80;51.82
48244;BME280;34053;51.088;6.572;2023-05-01T03:53:37;100888.84;;;13.71;52.33
48244;BME280;34053;51.088;6.572;2023-05-01T03:56:28;100885.06;;;13.78;51.79
48244;BME280;34053;51.088;6.572;2023-05-01T03:59:24;100885.06;;;13.78;51.79
48244;BME280;34053;51.088;6.572;2023-05-01T04:02:15;100881.41;;;13.82;51.69
48244;BME280;34053;51.088;6.572;2023-05-01T04:05:06;100885.22;;;13.74;52.09
48244;BME280;34053;51.088;6.572;2023-05-01T04:07:57;100883.50;;;13.73;52.12
48244;BME280;34053;51.088;6.572;2023-05-01T04:10:48;100887.84;;;13.75;51.65
48244;BME280;34053;51.088;6.572;2023-05-01T04:13:39;100883.34;;;13.77;51.86
48244;BME280;34053;51.088;6.572;2023-05-01T04:16:30;100878.19;;;13.74;52.08
48244;BME280;34053;51.088;6.572;2023-05-01T04:19:21;100875.84;;;13.66;52.39
48244;BME280;34053;51.088;6.572;2023-05-01T04:22:12;100875.91;;;13.41;53.18
48244;BME280;34053;51.088;6.572;2023-05-01T04:25:02;100880.47;;;13.60;52.34
48244;BME280;34053;51.088;6.572;2023-05-01T04:27:54;100883.81;;;13.65;52.16
48244;BME280;34053;51.088;6.572;2023-05-01T04:30:45;100879.22;;;13.70;52.40
48244;BME280;34053;51.088;6.572;2023-05-01T04:33:36;100876.47;;;13.73;52.44
48244;BME280;34053;51.088;6.572;2023-05-01T04:36:26;100881.84;;;13.70;52.20
48244;BME280;34053;51.088;6.572;2023-05-01T04:39:19;100876.59;;;13.70;52.97
48244;BME280;34053;51.088;6.572;2023-05-01T04:42:09;100880.03;;;13.72;52.28
48244;BME280;34053;51.088;6.572;2023-05-01T04:45:00;100874.19;;;13.64;52.54
48244;BME280;34053;51.088;6.572;2023-05-01T04:47:53;100876.16;;;13.59;52.99
48244;BME280;34053;51.088;6.572;2023-05-01T04:50:44;100870.63;;;13.65;52.71
48244;BME280;34053;51.088;6.572;2023-05-01T04:53:35;100878.31;;;13.71;52.52
48244;BME280;34053;51.088;6.572;2023-05-01T04:56:26;100874.75;;;13.72;52.37
48244;BME280;34053;51.088;6.572;2023-05-01T04:59:16;100882.56;;;13.75;52.26
48244;BME280;34053;51.088;6.572;2023-05-01T05:02:08;100885.88;;;13.57;53.38
48244;BME280;34053;51.088;6.572;2023-05-01T05:04:58;100874.84;;;13.69;53.08
48244;BME280;34053;51.088;6.572;2023-05-01T05:07:49;100877.47;;;13.71;53.01
48244;BME280;34053;51.088;6.572;2023-05-01T05:10:40;100876.47;;;13.73;53.04
48244;BME280;34053;51.088;6.572;2023-05-01T05:13:30;100884.88;;;13.83;52.52
48244;BME280;34053;51.088;6.572;2023-05-01T05:16:21;100875.81;;;13.90;52.33
48244;BME280;34053;51.088;6.572;2023-05-01T05:19:12;100879.34;;;13.91;52.65
48244;BME280;34053;51.088;6.572;2023-05-01T05:22:03;100875.53;;;13.98;52.48
48244;BME280;34053;51.088;6.572;2023-05-01T05:24:54;100877.38;;;13.96;52.86
48244;BME280;34053;51.088;6.572;2023-05-01T05:27:45;100886.09;;;13.98;53.17
48244;BME280;34053;51.088;6.572;2023-05-01T05:30:36;100889.41;;;14.03;52.56
48244;BME280;34053;51.088;6.572;2023-05-01T05:33:26;100889.41;;;14.03;53.04
48244;BME280;34053;51.088;6.572;2023-05-01T05:36:18;100881.19;;;14.11;52.68
48244;BME280;34053;51.088;6.572;2023-05-01T05:39:09;100882.75;;;14.16;52.63
48244;BME280;34053;51.088;6.572;2023-05-01T05:42:00;100890.50;;;14.20;52.85
48244;BME280;34053;51.088;6.572;2023-05-01T05:44:51;100886.88;;;14.22;52.57
48244;BME280;34053;51.088;6.572;2023-05-01T05:47:42;100889.41;;;14.25;52.70
48244;BME280;34053;51.088;6.572;2023-05-01T05:50:33;100879.84;;;14.23;53.01
48244;BME280;34053;51.088;6.572;2023-05-01T05:53:24;100884.97;;;14.26;53.42
48244;BME280;34053;51.088;6.572;2023-05-01T05:56:15;100879.72;;;14.26;53.26
48244;BME280;34053;51.088;6.572;2023-05-01T05:59:06;100888.19;;;14.34;52.78
48244;BME280;34053;51.088;6.572;2023-05-01T06:01:58;100884.88;;;14.29;53.42
48244;BME280;34053;51.088;6.572;2023-05-01T06:04:48;100885.34;;;14.39;53.23
48244;BME280;34053;51.088;6.572;2023-05-01T06:07:39;100885.13;;;14.45;52.83
48244;BME280;34053;51.088;6.572;2023-05-01T06:10:30;100886.34;;;14.36;53.28
48244;BME280;34053;51.088;6.572;2023-05-01T06:13:21;100887.69;;;14.46;52.95
48244;BME280;34053;51.088;6.572;2023-05-01T06:16:12;100885.88;;;14.48;52.89
48244;BME280;34053;51.088;6.572;2023-05-01T06:19:03;100889.16;;;14.54;52.93
48244;BME280;34053;51.088;6.572;2023-05-01T06:21:53;100881.13;;;14.57;52.77
48244;BME280;34053;51.088;6.572;2023-05-01T06:24:44;100876.69;;;14.57;52.98
48244;BME280;34053;51.088;6.572;2023-05-01T06:27:35;100876.56;;;14.60;52.99
48244;BME280;34053;51.088;6.572;2023-05-01T06:30:26;100883.50;;;14.63;53.10
48244;BME280;34053;51.088;6.572;2023-05-01T06:33:17;100875.50;;;14.64;53.09
48244;BME280;34053;51.088;6.572;2023-05-01T06:36:08;100879.78;;;14.69;53.21
48244;BME280;34053;51.088;6.572;2023-05-01T06:38:59;100876.03;;;14.74;52.91
48244;BME280;34053;51.088;6.572;2023-05-01T06:41:49;100874.03;;;14.79;53.20
48244;BME280;34053;51.088;6.572;2023-05-01T06:44:41;100875.75;;;14.81;53.14
48244;BME280;34053;51.088;6.572;2023-05-01T06:47:32;100876.06;;;14.73;53.70
48244;BME280;34053;51.088;6.572;2023-05-01T06:50:23;100866.03;;;14.81;53.25
48244;BME280;34053;51.088;6.572;2023-05-01T06:53:13;100863.94;;;14.89;53.14
48244;BME280;34053;51.088;6.572;2023-05-01T06:56:05;100869.94;;;14.93;53.05
48244;BME280;34053;51.088;6.572;2023-05-01T06:58:56;100866.25;;;14.97;52.90
48244;BME280;34053;51.088;6.572;2023-05-01T07:01:47;100865.47;;;14.95;53.31
48244;BME280;34053;51.088;6.572;2023-05-01T07:04:37;100868.84;;;14.78;54.99
48244;BME280;34053;51.088;6.572;2023-05-01T07:07:28;100866.25;;;14.97;53.68
48244;BME280;34053;51.088;6.572;2023-05-01T07:10:20;100864.22;;;15.04;53.45
48244;BME280;34053;51.088;6.572;2023-05-01T07:13:12;100864.78;;;15.10;53.48
48244;BME280;34053;51.088;6.572;2023-05-01T07:16:04;100866.63;;;15.08;53.34
48244;BME280;34053;51.088;6.572;2023-05-01T07:18:55;100859.38;;;15.14;53.50
48244;BME280;34053;51.088;6.572;2023-05-01T07:21:46;100857.66;;;15.13;53.60
48244;BME280;34053;51.088;6.572;2023-05-01T07:24:37;100860.44;;;15.09;53.99
48244;BME280;34053;51.088;6.572;2023-05-01T07:27:28;100859.97;;;15.20;53.78
48244;BME280;34053;51.088;6.572;2023-05-01T07:30:19;100863.38;;;15.22;53.88
48244;BME280;34053;51.088;6.572;2023-05-01T07:33:10;100863.88;;;15.32;53.70
48244;BME280;34053;51.088;6.572;2023-05-01T07:36:01;100864.50;;;15.37;53.77
48244;BME280;34053;51.088;6.572;2023-05-01T07:38:54;100860.41;;;15.30;53.82
48244;BME280;34053;51.088;6.572;2023-05-01T07:41:46;100856.16;;;15.47;53.28
48244;BME280;34053;51.088;6.572;2023-05-01T07:44:36;100860.38;;;15.51;53.47
48244;BME280;34053;51.088;6.572;2023-05-01T07:47:28;100858.06;;;15.24;53.69
48244;BME280;34053;51.088;6.572;2023-05-01T07:50:19;100853.81;;;15.40;53.92
48244;BME280;34053;51.088;6.572;2023-05-01T07:53:11;100847.53;;;15.62;53.60
48244;BME280;34053;51.088;6.572;2023-05-01T07:56:06;100851.66;;;15.68;53.75
48244;BME280;34053;51.088;6.572;2023-05-01T07:58:57;100857.50;;;15.74;53.55
48244;BME280;34053;51.088;6.572;2023-05-01T08:01:48;100857.69;;;15.71;52.73
48244;BME280;34053;51.088;6.572;2023-05-01T08:04:39;100851.25;;;15.77;53.33
48244;BME280;34053;51.088;6.572;2023-05-01T08:07:31;100851.97;;;15.81;52.70
48244;BME280;34053;51.088;6.572;2023-05-01T08:10:23;100853.13;;;15.94;52.93
48244;BME280;34053;51.088;6.572;2023-05-01T08:13:17;100860.63;;;16.03;52.91
48244;BME280;34053;51.088;6.572;2023-05-01T08:16:08;100860.09;;;16.14;52.29
48244;BME280;34053;51.088;6.572;2023-05-01T08:18:58;100858.53;;;16.10;52.43
48244;BME280;34053;51.088;6.572;2023-05-01T08:21:49;100865.38;;;16.14;52.82
48244;BME280;34053;51.088;6.572;2023-05-01T08:24:40;100863.31;;;16.21;52.46
48244;BME280;34053;51.088;6.572;2023-05-01T08:27:34;100867.50;;;16.25;52.96
48244;BME280;34053;51.088;6.572;2023-05-01T08:30:25;100868.56;;;16.40;52.64
48244;BME280;34053;51.088;6.572;2023-05-01T08:33:16;100859.22;;;16.33;52.54
48244;BME280;34053;51.088;6.572;2023-05-01T08:36:08;100854.97;;;16.11;51.80
48244;BME280;34053;51.088;6.572;2023-05-01T08:39:00;100862.22;;;16.25;52.67
48244;BME280;34053;51.088;6.572;2023-05-01T08:41:51;100862.69;;;16.33;52.83
48244;BME280;34053;51.088;6.572;2023-05-01T08:44:49;100857.00;;;16.24;51.26
48244;BME280;34053;51.088;6.572;2023-05-01T08:47:40;100857.53;;;16.13;50.47
48244;BME280;34053;51.088;6.572;2023-05-01T08:50:42;100854.72;;;16.16;51.60
48244;BME280;34053;51.088;6.572;2023-05-01T08:53:36;100857.00;;;16.24;51.30
48244;BME280;34053;51.088;6.572;2023-05-01T08:56:29;100853.50;;;16.23;51.28
48244;BME280;34053;51.088;6.572;2023-05-01T08:59:25;100858.06;;;16.39;51.53
48244;BME280;34053;51.088;6.572;2023-05-01T09:02:23;100848.09;;;16.44;51.72
48244;BME280;34053;51.088;6.572;2023-05-01T09:05:16;100843.41;;;16.49;51.60
48244;BME280;34053;51.088;6.572;2023-05-01T09:08:07;100841.53;;;16.51;51.54
48244;BME280;34053;51.088;6.572;2023-05-01T09:11:02;100848.88;;;16.46;53.05
48244;BME280;34053;51.088;6.572;2023-05-01T09:13:56;100851.53;;;16.63;52.63
48244;BME280;34053;51.088;6.572;2023-05-01T09:16:49;100840.94;;;16.63;51.85
48244;BME280;34053;51.088;6.572;2023-05-01T09:19:40;100842.19;;;16.56;50.16
48244;BME280;34053;51.088;6.572;2023-05-01T09:22:32;100846.53;;;16.57;50.69
48244;BME280;34053;51.088;6.572;2023-05-01T09:25:25;100846.94;;;16.67;50.71
48244;BME280;34053;51.088;6.572;2023-05-01T09:28:38;100846.94;;;16.67;50.59
48244;BME280;34053;51.088;6.572;2023-05-01T09:31:31;100847.56;;;16.72;50.43
48244;BME280;34053;51.088;6.572;2023-05-01T09:34:24;100850.56;;;16.82;51.46
48244;BME280;34053;51.088;6.572;2023-05-01T09:37:32;100843.88;;;16.92;50.41
48244;BME280;34053;51.088;6.572;2023-05-01T09:40:26;100843.66;;;16.97;50.96
48244;BME280;34053;51.088;6.572;2023-05-01T09:43:27;100840.78;;;17.02;50.60
48244;BME280;34053;51.088;6.572;2023-05-01T09:46:23;100843.72;;;17.13;50.84
48244;BME280;34053;51.088;6.572;2023-05-01T09:49:46;100842.72;;;17.15;49.40
48244;BME280;34053;51.088;6.572;2023-05-01T09:52:56;100842.81;;;17.14;50.07
48244;BME280;34053;51.088;6.572;2023-05-01T09:56:01;100851.91;;;17.26;49.33
48244;BME280;34053;51.088;6.572;2023-05-01T09:58:54;100840.25;;;17.28;48.91
48244;BME280;34053;51.088;6.572;2023-05-01T10:01:57;100837.88;;;17.40;48.86
48244;BME280;34053;51.088;6.572;2023-05-01T10:05:03;100835.56;;;17.34;47.87
48244;BME280;34053;51.088;6.572;2023-05-01T10:08:00;100838.31;;;17.48;49.82
48244;BME280;34053;51.088;6.572;2023-05-01T10:11:05;100835.09;;;17.59;49.68
48244;BME280;34053;51.088;6.572;2023-05-01T10:14:08;100834.31;;;17.73;48.88
48244;BME280;34053;51.088;6.572;2023-05-01T10:16:59;100833.22;;;17.77;48.14
48244;BME280;34053;51.088;6.572;2023-05-01T10:19:54;100832.53;;;17.89;48.90
48244;BME280;34053;51.088;6.572;2023-05-01T10:22:44;100829.28;;;17.84;48.61
48244;BME280;34053;51.088;6.572;2023-05-01T10:25:43;100832.72;;;17.86;49.24
48244;BME280;34053;51.088;6.572;2023-05-01T10:28:37;100829.72;;;17.92;48.12
48244;BME280;34053;51.088;6.572;2023-05-01T10:31:31;100828.97;;;18.06;47.96
48244;BME280;34053;51.088;6.572;2023-05-01T10:34:26;100832.13;;;18.13;47.55
48244;BME280;34053;51.088;6.572;2023-05-01T10:37:33;100826.97;;;18.10;46.78
48244;BME280;34053;51.088;6.572;2023-05-01T10:40:52;100823.59;;;18.22;47.24
48244;BME280;34053;51.088;6.572;2023-05-01T10:43:43;100825.53;;;18.20;46.08
48244;BME280;34053;51.088;6.572;2023-05-01T10:46:58;100836.78;;;18.40;46.89
48244;BME280;34053;51.088;6.572;2023-05-01T10:50:09;100822.00;;;18.50;46.74
48244;BME280;34053;51.088;6.572;2023-05-01T10:53:14;100818.16;;;18.56;46.40
48244;BME280;34053;51.088;6.572;2023-05-01T10:59:15;100817.78;;;18.62;45.03
48244;BME280;34053;51.088;6.572;2023-05-01T11:02:20;100816.94;;;18.76;46.19
48244;BME280;34053;51.088;6.572;2023-05-01T11:05:11;100805.94;;;18.82;46.73
48244;BME280;34053;51.088;6.572;2023-05-01T11:08:37;100818.66;;;18.77;44.88
48244;BME280;34053;51.088;6.572;2023-05-01T11:12:49;100809.34;;;19.00;45.55
48244;BME280;34053;51.088;6.572;2023-05-01T11:15:55;100814.94;;;19.10;46.02
48244;BME280;34053;51.088;6.572;2023-05-01T11:22:29;100809.44;;;19.28;44.84
48244;BME280;34053;51.088;6.572;2023-05-01T11:25:42;100805.31;;;19.37;45.72
48244;BME280;34053;51.088;6.572;2023-05-01T11:28:34;100810.19;;;19.44;45.81
48244;BME280;34053;51.088;6.572;2023-05-01T11:31:31;100801.22;;;19.60;45.27
48244;BME280;34053;51.088;6.572;2023-05-01T11:34:34;100797.97;;;19.69;43.79
48244;BME280;34053;51.088;6.572;2023-05-01T11:37:41;100803.06;;;19.72;44.03
48244;BME280;34053;51.088;6.572;2023-05-01T11:40:33;100801.22;;;19.60;43.96
48244;BME280;34053;51.088;6.572;2023-05-01T11:43:24;100807.00;;;19.66;44.10
48244;BME280;34053;51.088;6.572;2023-05-01T11:46:23;100800.59;;;19.84;43.35
48244;BME280;34053;51.088;6.572;2023-05-01T11:49:25;100788.59;;;19.91;41.96
48244;BME280;34053;51.088;6.572;2023-05-01T11:52:16;100785.19;;;19.89;42.19
48244;BME280;34053;51.088;6.572;2023-05-01T11:55:36;100780.72;;;19.89;42.54
48244;BME280;34053;51.088;6.572;2023-05-01T11:58:31;100787.59;;;20.06;43.92
48244;BME280;34053;51.088;6.572;2023-05-01T12:01:36;100784.75;;;20.09;41.16
48244;BME280;34053;51.088;6.572;2023-05-01T12:04:27;100776.16;;;20.19;41.70
48244;BME280;34053;51.088;6.572;2023-05-01T12:07:19;100777.00;;;20.32;42.19
48244;BME280;34053;51.088;6.572;2023-05-01T12:10:28;100772.75;;;20.29;42.31
48244;BME280;34053;51.088;6.572;2023-05-01T12:13:20;100774.88;;;20.78;41.41
48244;BME280;34053;51.088;6.572;2023-05-01T12:16:11;100776.63;;;20.64;38.58
48244;BME280;34053;51.088;6.572;2023-05-01T12:19:02;100770.38;;;20.78;40.28
48244;BME280;34053;51.088;6.572;2023-05-01T12:22:14;100771.03;;;20.82;39.58
48244;BME280;34053;51.088;6.572;2023-05-01T12:25:06;100763.53;;;20.61;38.85
48244;BME280;34053;51.088;6.572;2023-05-01T12:27:56;100759.84;;;20.77;38.47
48244;BME280;34053;51.088;6.572;2023-05-01T12:31:07;100764.28;;;20.76;38.94
48244;BME280;34053;51.088;6.572;2023-05-01T12:34:47;100767.03;;;20.49;38.71
48244;BME280;34053;51.088;6.572;2023-05-01T12:37:57;100762.66;;;20.48;38.75
48244;BME280;34053;51.088;6.572;2023-05-01T12:41:12;100768.53;;;20.66;39.46
48244;BME280;34053;51.088;6.572;2023-05-01T12:47:12;100760.44;;;20.54;41.32
48244;BME280;34053;51.088;6.572;2023-05-01T12:50:03;100758.59;;;20.55;41.67
48244;BME280;34053;51.088;6.572;2023-05-01T12:52:55;100760.00;;;20.60;42.21
48244;BME280;34053;51.088;6.572;2023-05-01T12:55:47;100761.88;;;20.20;41.83
48244;BME280;34053;51.088;6.572;2023-05-01T12:58:38;100758.69;;;20.40;41.81
48244;BME280;34053;51.088;6.572;2023-05-01T13:01:29;100762.06;;;20.17;41.12
48244;BME280;34053;51.088;6.572;2023-05-01T13:04:20;100754.88;;;20.44;41.76
48244;BME280;34053;51.088;6.572;2023-05-01T13:07:14;100765.88;;;20.53;41.40
48244;BME280;34053;51.088;6.572;2023-05-01T13:10:06;100764.03;;;20.53;41.08
48244;BME280;34053;51.088;6.572;2023-05-01T13:13:33;100767.16;;;20.60;40.55
48244;BME280;34053;51.088;6.572;2023-05-01T13:16:30;100763.22;;;20.53;40.57
48244;BME280;34053;51.088;6.572;2023-05-01T13:19:30;100776.53;;;20.53;40.22
48244;BME280;34053;51.088;6.572;2023-05-01T13:22:33;100777.47;;;20.39;39.21
48244;BME280;34053;51.088;6.572;2023-05-01T13:25:26;100772.94;;;20.26;38.26
48244;BME280;34053;51.088;6.572;2023-05-01T13:28:17;100767.22;;;20.45;37.98
48244;BME280;34053;51.088;6.572;2023-05-01T13:31:13;100770.22;;;20.41;39.12
48244;BME280;34053;51.088;6.572;2023-05-01T13:34:04;100761.81;;;20.47;39.65
48244;BME280;34053;51.088;6.572;2023-05-01T13:40:43;100761.97;;;20.31;37.18
48244;BME280;34053;51.088;6.572;2023-05-01T13:43:42;100765.53;;;20.44;39.01
48244;BME280;34053;51.088;6.572;2023-05-01T13:46:34;100773.00;;;20.65;39.13
48244;BME280;34053;51.088;6.572;2023-05-01T13:49:25;100763.72;;;20.58;37.42
48244;BME280;34053;51.088;6.572;2023-05-01T13:52:17;100772.16;;;20.65;38.49
48244;BME280;34053;51.088;6.572;2023-05-01T13:55:10;100773.94;;;20.38;34.85
48244;BME280;34053;51.088;6.572;2023-05-01T13:58:01;100787.06;;;20.41;36.69
48244;BME280;34053;51.088;6.572;2023-05-01T14:00:52;100804.63;;;20.04;36.00
48244;BME280;34053;51.088;6.572;2023-05-01T14:03:43;100809.84;;;20.05;41.45
48244;BME280;34053;51.088;6.572;2023-05-01T14:06:35;100812.50;;;20.05;41.64
48244;BME280;34053;51.088;6.572;2023-05-01T14:09:34;100821.69;;;20.01;41.92
48244;BME280;34053;51.088;6.572;2023-05-01T14:12:27;100826.47;;;19.67;42.37
48244;BME280;34053;51.088;6.572;2023-05-01T14:15:18;100839.13;;;19.63;42.07
48244;BME280;34053;51.088;6.572;2023-05-01T14:18:15;100865.09;;;19.16;52.91
48244;BME280;34053;51.088;6.572;2023-05-01T14:21:07;100896.34;;;17.21;59.11
48244;BME280;34053;51.088;6.572;2023-05-01T14:23:59;100899.91;;;17.71;55.49
48244;BME280;34053;51.088;6.572;2023-05-01T14:26:51;100891.28;;;16.98;56.63
48244;BME280;34053;51.088;6.572;2023-05-01T14:29:41;100889.56;;;16.80;56.78
48244;BME280;34053;51.088;6.572;2023-05-01T14:32:39;100894.09;;;17.46;57.26
48244;BME280;34053;51.088;6.572;2023-05-01T14:35:30;100885.91;;;17.51;57.13
48244;BME280;34053;51.088;6.572;2023-05-01T14:38:23;100880.13;;;17.60;58.26
48244;BME280;34053;51.088;6.572;2023-05-01T14:41:16;100873.69;;;17.65;55.53
48244;BME280;34053;51.088;6.572;2023-05-01T14:44:14;100875.16;;;17.54;56.26
48244;BME280;34053;51.088;6.572;2023-05-01T14:47:07;100876.91;;;17.54;56.83
48244;BME280;34053;51.088;6.572;2023-05-01T14:49:59;100878.25;;;17.62;55.55
48244;BME280;34053;51.088;6.572;2023-05-01T14:52:54;100874.97;;;17.57;57.16
48244;BME280;34053;51.088;6.572;2023-05-01T14:55:49;100875.50;;;17.64;56.89
48244;BME280;34053;51.088;6.572;2023-05-01T14:58:40;100875.78;;;17.42;58.19
48244;BME280;34053;51.088;6.572;2023-05-01T15:01:31;100879.97;;;17.64;56.05
48244;BME280;34053;51.088;6.572;2023-05-01T15:04:22;100874.91;;;17.59;57.09
48244;BME280;34053;51.088;6.572;2023-05-01T15:07:13;100870.09;;;17.66;56.37
48244;BME280;34053;51.088;6.572;2023-05-01T15:10:05;100874.03;;;17.58;57.86
48244;BME280;34053;51.088;6.572;2023-05-01T15:12:55;100878.84;;;17.68;57.19
48244;BME280;34053;51.088;6.572;2023-05-01T15:15:46;100878.06;;;17.66;58.51
48244;BME280;34053;51.088;6.572;2023-05-01T15:18:37;100879.72;;;17.68;57.98
48244;BME280;34053;51.088;6.572;2023-05-01T15:21:28;100885.56;;;17.57;59.32
48244;BME280;34053;51.088;6.572;2023-05-01T15:24:19;100886.00;;;17.66;58.98
48244;BME280;34053;51.088;6.572;2023-05-01T15:27:10;100883.38;;;17.66;60.55
48244;BME280;34053;51.088;6.572;2023-05-01T15:30:01;100891.94;;;17.71;59.36
48244;BME280;34053;51.088;6.572;2023-05-01T15:32:54;100885.50;;;17.75;62.00
48244;BME280;34053;51.088;6.572;2023-05-01T15:35:45;100888.94;;;17.77;59.45
48244;BME280;34053;51.088;6.572;2023-05-01T15:38:36;100897.00;;;17.91;58.65